Time;durP1;ratioP1;P1;durP2;ratioP2;P2;SDS_P1;SDS_P2;PMS_P1;PMS_P2;Temp;Humidity;BMP_temperature;BMP_pressure;BME280_temperature;BME280_humidity;BME280_pressure;Samples;Min_cycle;Max_cycle;Signal;HPM_P1;HPM_P2
2022/07/03 00:00:10;;;;;;;6.45;5.15;;;;;;;;;;10278800;28;20068;-64
2022/07/03 00:05:11;;;;;;;;;;;;;;;;;;10277734;28;20052;-65
2022/07/03 00:10:09;;;;;;;4.90;4.50;;;;;;;;;;10277547;28;19931;-65
2022/07/03 00:15:09;;;;;;;5.13;4.65;;;;;;;;;;10283543;28;20092;-64
2022/07/03 00:20:09;;;;;;;4.65;3.28;;;;;;;;;;10284532;28;20080;-64
2022/07/03 00:25:07;;;;;;;5.60;3.92;;;;;;;;;;10287630;28;20061;-64
2022/07/03 00:30:08;;;;;;;5.78;3.72;;;;;;;;;;10285040;28;20084;-64
2022/07/03 00:35:08;;;;;;;8.55;4.38;;;;;;;;;;10285880;28;20084;-65
2022/07/03 00:40:07;;;;;;;5.75;3.55;;;;;;;;;;10283950;28;20084;-64
2022/07/03 00:45:07;;;;;;;4.13;3.40;;;;;;;;;;10286987;28;20119;-65
2022/07/03 00:50:09;;;;;;;4.22;3.70;;;;;;;;;;10286250;28;20665;-65
2022/07/03 00:55:09;;;;;;;4.15;3.20;;;;;;;;;;10282993;28;20092;-65
2022/07/03 01:00:08;;;;;;;4.95;3.17;;;;;;;;;;10282810;28;20084;-65
2022/07/03 01:05:11;;;;;;;3.72;3.17;;;;;;;;;;10289284;28;20073;-64
2022/07/03 01:10:12;;;;;;;6.53;3.88;;;;;;;;;;10284825;28;20072;-65
2022/07/03 01:15:12;;;;;;;4.30;3.58;;;;;;;;;;10282209;28;20513;-64
2022/07/03 01:20:12;;;;;;;3.67;3.38;;;;;;;;;;10281219;28;20045;-65
2022/07/03 01:25:15;;;;;;;3.97;3.28;;;;;;;;;;10284848;28;20073;-65
2022/07/03 01:30:13;;;;;;;;;;;;;;;;;;10282181;28;20414;-65
2022/07/03 01:35:14;;;;;;;3.83;2.90;;;;;;;;;;10283520;28;19952;-64
2022/07/03 01:40:13;;;;;;;8.13;7.13;;;;;;;;;;10281745;28;20053;-68
2022/07/03 01:45:14;;;;;;;4.32;3.92;;;;;;;;;;10281156;28;20061;-68
2022/07/03 01:50:14;;;;;;;4.05;3.30;;;;;;;;;;10280925;28;20076;-68
2022/07/03 01:55:13;;;;;;;5.50;4.40;;;;;;;;;;10279837;28;20092;-68
2022/07/03 02:00:12;;;;;;;4.95;3.90;;;;;;;;;;10284763;28;20117;-68
2022/07/03 02:05:15;;;;;;;4.13;3.70;;;;;;;;;;10283740;28;20057;-68
2022/07/03 02:10:18;;;;;;;8.85;3.88;;;;;;;;;;10280960;28;20049;-69
2022/07/03 02:15:18;;;;;;;6.03;4.53;;;;;;;;;;10283857;28;20084;-68
2022/07/03 02:20:17;;;;;;;3.75;3.45;;;;;;;;;;10282546;28;20533;-68
2022/07/03 02:25:19;;;;;;;4.47;4.07;;;;;;;;;;10279857;28;20084;-68
2022/07/03 02:30:18;;;;;;;5.55;4.05;;;;;;;;;;10279497;28;20504;-67
2022/07/03 02:35:22;;;;;;;3.85;3.45;;;;;;;;;;10281588;28;20080;-68
2022/07/03 02:40:20;;;;;;;;;;;;;;;;;;10283145;28;20451;-67
2022/07/03 02:45:21;;;;;;;8.98;4.13;;;;;;;;;;10278857;28;19960;-68
2022/07/03 02:50:22;;;;;;;7.25;4.05;;;;;;;;;;10278508;28;20073;-68
2022/07/03 02:55:33;;;;;;;8.93;4.22;;;;;;;;;;10278499;28;20072;-68
2022/07/03 03:00:34;;;;;;;7.10;4.30;;;;;;;;;;10278471;28;20072;-68
2022/07/03 03:05:36;;;;;;;7.18;4.05;;;;;;;;;;10277221;28;20077;-69
2022/07/03 03:10:36;;;;;;;4.70;4.20;;;;;;;;;;10277340;28;20057;-68
2022/07/03 03:15:36;;;;;;;11.50;4.65;;;;;;;;;;10276748;28;20081;-69
2022/07/03 03:20:36;;;;;;;4.93;4.13;;;;;;;;;;10287386;28;20068;-68
2022/07/03 03:25:34;;;;;;;5.03;4.63;;;;;;;;;;10277877;28;20081;-69
2022/07/03 03:30:33;;;;;;;6.18;4.57;;;;;;;;;;10279927;28;20083;-68
2022/07/03 03:35:32;;;;;;;4.65;4.00;;;;;;;;;;10279315;28;20087;-68
2022/07/03 03:40:32;;;;;;;5.60;4.50;;;;;;;;;;10279261;28;20065;-68
2022/07/03 03:45:30;;;;;;;4.53;4.13;;;;;;;;;;10273708;28;20494;-68
2022/07/03 03:50:29;;;;;;;7.57;4.88;;;;;;;;;;10275634;28;20041;-68
2022/07/03 03:55:31;;;;;;;5.03;4.55;;;;;;;;;;10276238;28;20497;-68
2022/07/03 04:00:29;;;;;;;7.68;4.50;;;;;;;;;;10279068;28;20544;-69
2022/07/03 04:05:28;;;;;;;4.22;3.92;;;;;;;;;;10275070;28;20517;-69
2022/07/03 04:10:26;;;;;;;5.25;4.10;;;;;;;;;;10274978;28;20506;-68
2022/07/03 04:15:26;;;;;;;8.98;5.43;;;;;;;;;;10275595;28;20083;-68
2022/07/03 04:20:24;;;;;;;5.07;4.43;;;;;;;;;;10278947;28;20490;-68
2022/07/03 04:25:23;;;;;;;8.45;5.10;;;;;;;;;;10276243;28;20498;-68
2022/07/03 04:30:21;;;;;;;5.53;4.97;;;;;;;;;;10275940;28;20045;-68
2022/07/03 04:35:21;;;;;;;6.00;4.18;;;;;;;;;;10276097;28;20084;-67
2022/07/03 04:40:19;;;;;;;6.63;4.28;;;;;;;;;;10277712;28;20075;-68
2022/07/03 04:45:18;;;;;;;5.80;4.75;;;;;;;;;;10278265;28;20529;-68
2022/07/03 04:50:16;;;;;;;4.10;3.80;;;;;;;;;;10275600;28;20048;-68
2022/07/03 04:55:16;;;;;;;5.97;4.57;;;;;;;;;;10276214;28;20068;-68
2022/07/03 05:00:14;;;;;;;4.70;4.30;;;;;;;;;;10286035;28;20045;-68
2022/07/03 05:05:12;;;;;;;8.88;7.97;;;;;;;;;;10283264;28;20092;-67
2022/07/03 05:10:11;;;;;;;7.00;4.82;;;;;;;;;;10291180;28;20049;-67
2022/07/03 05:15:11;;;;;;;5.45;4.10;;;;;;;;;;10280961;28;20079;-68
2022/07/03 05:20:27;;;;;;;6.30;5.15;;;;;;;;;;10281115;28;20045;-68
2022/07/03 05:25:26;;;;;;;8.18;4.72;;;;;;;;;;10281966;28;20100;-68
2022/07/03 05:30:26;;;;;;;5.68;5.03;;;;;;;;;;10280820;28;20072;-68
2022/07/03 05:35:25;;;;;;;8.68;4.88;;;;;;;;;;10280172;28;20080;-69
2022/07/03 05:40:24;;;;;;;4.93;4.53;;;;;;;;;;10284472;28;20076;-69
2022/07/03 05:45:22;;;;;;;7.30;4.82;;;;;;;;;;10289568;28;20045;-68
2022/07/03 05:50:22;;;;;;;7.28;4.70;;;;;;;;;;10283725;28;20417;-68
2022/07/03 05:55:20;;;;;;;5.75;4.78;;;;;;;;;;10280780;28;20076;-68
2022/07/03 06:00:18;;;;;;;5.18;4.68;;;;;;;;;;10280229;28;20470;-68
2022/07/03 06:05:17;;;;;;;9.77;6.57;;;;;;;;;;10282795;28;20073;-68
2022/07/03 06:10:16;;;;;;;5.43;4.78;;;;;;;;;;10282475;28;20082;-69
2022/07/03 06:15:15;;;;;;;9.90;6.38;;;;;;;;;;10282295;28;20077;-69
2022/07/03 06:20:13;;;;;;;10.02;5.82;;;;;;;;;;10281105;28;20068;-68
2022/07/03 06:25:11;;;;;;;5.88;5.38;;;;;;;;;;10279525;28;20086;-66
2022/07/03 06:30:11;;;;;;;6.95;6.03;;;;;;;;;;10281890;28;20060;-67
2022/07/03 06:35:10;;;;;;;7.85;5.82;;;;;;;;;;10281181;28;20103;-68
2022/07/03 06:40:09;;;;;;;9.68;5.63;;;;;;;;;;10277591;28;20048;-67
2022/07/03 06:45:07;;;;;;;11.10;6.20;;;;;;;;;;10277499;28;20041;-67
2022/07/03 06:50:08;;;;;;;6.47;5.85;;;;;;;;;;10276957;28;20053;-68
2022/07/03 06:55:06;;;;;;;7.35;4.97;;;;;;;;;;10278511;28;20518;-68
2022/07/03 07:00:05;;;;;;;7.00;5.65;;;;;;;;;;10280592;28;20083;-69
2022/07/03 07:05:04;;;;;;;6.30;5.47;;;;;;;;;;10281158;28;20052;-68
2022/07/03 07:10:04;;;;;;;8.63;5.75;;;;;;;;;;10277471;28;20390;-68
2022/07/03 07:15:02;;;;;;;7.43;5.57;;;;;;;;;;10280262;28;20072;-68
2022/07/03 07:20:00;;;;;;;10.75;5.50;;;;;;;;;;10277330;28;20041;-68
2022/07/03 07:24:58;;;;;;;6.55;5.18;;;;;;;;;;10276379;28;20076;-69
2022/07/03 07:29:58;;;;;;;7.22;5.60;;;;;;;;;;10279761;28;20353;-69
2022/07/03 07:34:56;;;;;;;7.85;5.22;;;;;;;;;;10279211;28;20467;-68
2022/07/03 07:39:55;;;;;;;6.07;5.10;;;;;;;;;;10276999;28;20049;-70
2022/07/03 07:44:53;;;;;;;7.05;5.15;;;;;;;;;;10277030;28;20080;-69
2022/07/03 07:49:53;;;;;;;6.13;5.50;;;;;;;;;;10276317;28;20095;-69
2022/07/03 07:54:51;;;;;;;6.97;6.15;;;;;;;;;;10277138;28;20088;-69
2022/07/03 07:59:49;;;;;;;7.78;4.65;;;;;;;;;;10276292;28;20074;-69
2022/07/03 08:10:06;;;;;;;4.82;4.30;;;;;;;;;;10277137;28;20092;-68
2022/07/03 08:15:05;;;;;;;5.68;4.18;;;;;;;;;;10276163;28;20084;-68
2022/07/03 08:20:04;;;;;;;5.18;3.92;;;;;;;;;;10274782;28;20502;-68
2022/07/03 08:25:02;;;;;;;5.68;4.00;;;;;;;;;;10275908;28;20524;-68
2022/07/03 08:30:02;;;;;;;4.50;4.00;;;;;;;;;;10274767;28;20095;-69
2022/07/03 08:35:00;;;;;;;5.65;4.28;;;;;;;;;;10285891;28;20486;-68
2022/07/03 08:39:58;;;;;;;5.30;3.35;;;;;;;;;;10286449;28;20473;-68
2022/07/03 08:44:58;;;;;;;4.80;4.28;;;;;;;;;;10286205;28;20044;-68
2022/07/03 08:49:59;;;;;;;4.53;4.13;;;;;;;;;;10292313;28;20057;-68
2022/07/03 08:54:57;;;;;;;4.50;4.10;;;;;;;;;;10282730;28;20080;-68
2022/07/03 08:59:56;;;;;;;15.85;4.95;;;;;;;;;;10281694;28;20080;-68
2022/07/03 09:04:56;;;;;;;7.35;4.65;;;;;;;;;;10282025;28;20045;-68
2022/07/03 09:09:56;;;;;;;8.90;5.10;;;;;;;;;;10314056;28;20075;-68
2022/07/03 09:14:54;;;;;;;7.28;6.55;;;;;;;;;;10295900;28;20088;-69
2022/07/03 09:19:53;;;;;;;8.38;5.65;;;;;;;;;;10281336;28;20503;-69
2022/07/03 09:24:52;;;;;;;8.48;5.93;;;;;;;;;;10281048;28;20091;-69
2022/07/03 09:30:01;;;;;;;7.85;5.15;;;;;;;;;;10284462;28;20080;-68
2022/07/03 09:35:17;;;;;;;5.32;4.70;;;;;;;;;;10283504;28;20052;-68
2022/07/03 09:40:16;;;;;;;8.57;5.38;;;;;;;;;;10287463;28;20074;-68
2022/07/03 09:45:15;;;;;;;8.75;4.97;;;;;;;;;;10279968;28;20068;-68
2022/07/03 09:50:14;;;;;;;6.82;4.90;;;;;;;;;;10280001;28;20044;-68
2022/07/03 09:55:13;;;;;;;8.35;5.63;;;;;;;;;;10280023;28;20084;-68
2022/07/03 10:00:13;;;;;;;11.35;5.85;;;;;;;;;;10281156;28;20072;-68
2022/07/03 10:05:13;;;;;;;12.80;7.43;;;;;;;;;;10280420;28;20084;-69
2022/07/03 10:10:11;;;;;;;11.10;6.57;;;;;;;;;;10282580;28;20100;-67
2022/07/03 10:15:10;;;;;;;7.40;6.70;;;;;;;;;;10278837;28;20052;-68
2022/07/03 10:20:10;;;;;;;12.13;7.72;;;;;;;;;;10278797;28;20069;-68
2022/07/03 10:25:10;;;;;;;9.80;7.20;;;;;;;;;;10278232;28;20091;-69
2022/07/03 10:30:09;;;;;;;8.15;7.35;;;;;;;;;;10281689;28;20072;-68
2022/07/03 10:35:08;;;;;;;7.82;6.45;;;;;;;;;;10277312;28;20136;-69
2022/07/03 10:45:21;;;;;;;7.43;5.78;;;;;;;;;;10276504;28;20075;-69
2022/07/03 10:50:20;;;;;;;9.10;5.25;;;;;;;;;;10286397;28;20064;-69
2022/07/03 10:55:19;;;;;;;12.70;5.18;;;;;;;;;;10278664;28;20049;-69
2022/07/03 11:00:18;;;;;;;6.43;5.00;;;;;;;;;;10278954;28;20104;-69
2022/07/03 11:05:19;;;;;;;6.53;4.82;;;;;;;;;;10277368;28;20061;-68
2022/07/03 11:10:31;;;;;;;8.00;4.60;;;;;;;;;;10276681;28;20065;-69
2022/07/03 11:15:30;;;;;;;5.63;4.65;;;;;;;;;;10281304;28;20088;-68
2022/07/03 11:20:30;;;;;;;8.45;4.45;;;;;;;;;;10280173;28;20317;-69
2022/07/03 11:25:38;;;;;;;11.52;4.40;;;;;;;;;;10280215;28;20076;-68
2022/07/03 11:30:57;;;;;;;6.65;4.22;;;;;;;;;;10277608;28;20083;-69
2022/07/03 11:35:56;;;;;;;10.75;4.43;;;;;;;;;;10278098;28;20091;-68
2022/07/03 11:40:55;;;;;;;9.27;5.70;;;;;;;;;;10307427;28;20059;-68
2022/07/03 11:45:54;;;;;;;8.40;5.15;;;;;;;;;;10277979;28;20398;-69
2022/07/03 11:50:53;;;;;;;8.77;5.10;;;;;;;;;;10274209;28;20049;-69
2022/07/03 11:55:54;;;;;;;8.43;4.47;;;;;;;;;;10279140;28;20045;-68
2022/07/03 12:00:52;;;;;;;10.48;5.85;;;;;;;;;;10279019;28;20407;-69
2022/07/03 12:05:52;;;;;;;13.55;5.03;;;;;;;;;;10275212;28;20052;-68
2022/07/03 12:10:50;;;;;;;11.30;5.30;;;;;;;;;;10276634;28;20069;-68
2022/07/03 12:16:01;;;;;;;17.10;5.57;;;;;;;;;;10275301;28;20414;-68
2022/07/03 12:21:04;;;;;;;13.05;7.35;;;;;;;;;;10308453;28;20123;-68
2022/07/03 12:26:02;;;;;;;;;;;;;;;;;;10315035;28;20337;-70
2022/07/03 12:31:02;;;;;;;16.20;5.03;;;;;;;;;;10283980;28;20333;-69
2022/07/03 12:36:04;;;;;;;11.93;5.25;;;;;;;;;;10275907;28;20073;-68
2022/07/03 12:41:03;;;;;;;7.90;5.25;;;;;;;;;;10288555;28;20435;-69
2022/07/03 12:46:03;;;;;;;5.40;3.70;;;;;;;;;;10275077;28;20052;-69
2022/07/03 12:51:03;;;;;;;10.02;4.80;;;;;;;;;;10273784;28;20433;-68
2022/07/03 12:56:02;;;;;;;16.73;5.70;;;;;;;;;;10272521;28;20088;-68
2022/07/03 13:01:02;;;;;;;8.35;4.93;;;;;;;;;;10275011;28;20072;-69
2022/07/03 13:06:02;;;;;;;7.75;4.80;;;;;;;;;;10275388;28;20068;-69
2022/07/03 13:11:01;;;;;;;9.43;3.80;;;;;;;;;;10276127;28;20056;-67
2022/07/03 13:15:59;;;;;;;10.23;6.18;;;;;;;;;;10276181;28;20041;-68
2022/07/03 13:20:57;;;;;;;5.93;4.18;;;;;;;;;;10282927;28;20081;-68
2022/07/03 13:25:57;;;;;;;7.18;4.90;;;;;;;;;;10282967;28;20081;-68
2022/07/03 13:30:55;;;;;;;10.20;4.35;;;;;;;;;;10285562;28;20502;-68
2022/07/03 13:35:53;;;;;;;6.75;3.53;;;;;;;;;;10278904;28;20045;-69
2022/07/03 13:40:52;;;;;;;5.22;4.20;;;;;;;;;;10281410;28;20090;-69
2022/07/03 13:45:51;;;;;;;8.63;3.92;;;;;;;;;;10281801;28;20080;-68
2022/07/03 13:50:50;;;;;;;4.88;3.50;;;;;;;;;;10283351;28;20080;-68
2022/07/03 13:55:48;;;;;;;5.68;3.75;;;;;;;;;;10280243;28;20049;-68
2022/07/03 14:00:47;;;;;;;11.85;4.15;;;;;;;;;;10281212;28;20087;-69
2022/07/03 14:05:47;;;;;;;10.90;5.28;;;;;;;;;;10308906;28;20618;-69
2022/07/03 14:10:46;;;;;;;12.60;5.18;;;;;;;;;;10281496;28;20091;-68
2022/07/03 14:15:47;;;;;;;4.00;3.70;;;;;;;;;;10279187;28;20079;-69
2022/07/03 14:20:47;;;;;;;8.10;4.78;;;;;;;;;;10278852;28;20083;-69
2022/07/03 14:25:45;;;;;;;8.98;4.32;;;;;;;;;;10286107;28;20084;-69
2022/07/03 14:36:00;;;;;;;5.65;3.80;;;;;;;;;;10283835;28;20076;-68
2022/07/03 14:41:00;;;;;;;5.47;3.60;;;;;;;;;;10279673;28;20103;-67
2022/07/03 14:45:59;;;;;;;6.25;4.00;;;;;;;;;;10279596;28;20041;-67
2022/07/03 14:50:57;;;;;;;7.78;3.92;;;;;;;;;;10281094;28;20049;-67
2022/07/03 14:55:58;;;;;;;7.03;3.40;;;;;;;;;;10284915;28;20077;-69
2022/07/03 15:00:56;;;;;;;4.20;3.80;;;;;;;;;;10284302;28;20554;-67
2022/07/03 15:05:55;;;;;;;3.88;3.55;;;;;;;;;;10275090;28;20092;-69
2022/07/03 15:10:54;;;;;;;6.65;4.32;;;;;;;;;;10281125;28;20087;-69
2022/07/03 15:15:54;;;;;;;7.28;5.05;;;;;;;;;;10288793;28;20071;-69
2022/07/03 15:20:52;;;;;;;9.65;4.90;;;;;;;;;;10285013;28;20317;-69
2022/07/03 15:25:51;;;;;;;4.22;3.58;;;;;;;;;;10279911;28;20084;-69
2022/07/03 15:30:50;;;;;;;5.90;3.67;;;;;;;;;;10274421;28;20091;-69
2022/07/03 15:35:59;;;;;;;8.27;4.30;;;;;;;;;;10311679;28;20045;-69
2022/07/03 15:40:58;;;;;;;6.78;4.57;;;;;;;;;;10275844;28;20080;-69
2022/07/03 15:45:59;;;;;;;11.77;4.93;;;;;;;;;;10280645;28;20064;-69
2022/07/03 15:51:06;;;;;;;7.78;3.30;;;;;;;;;;10275748;28;20076;-69
2022/07/03 15:56:05;;;;;;;10.38;3.65;;;;;;;;;;10269747;28;20075;-68
2022/07/03 16:06:23;;;;;;;11.23;6.03;;;;;;;;;;10278564;28;20073;-69
2022/07/03 16:11:21;;;;;;;6.07;5.38;;;;;;;;;;10275202;28;20186;-70
2022/07/03 16:16:21;;;;;;;11.48;4.32;;;;;;;;;;10275472;28;20048;-70
2022/07/03 16:21:22;;;;;;;6.15;3.78;;;;;;;;;;10275269;28;20088;-70
2022/07/03 16:26:22;;;;;;;12.70;4.32;;;;;;;;;;10274812;28;20057;-68
2022/07/03 16:31:25;;;;;;;8.07;4.20;;;;;;;;;;10276835;28;20086;-68
2022/07/03 16:36:26;;;;;;;7.53;3.20;;;;;;;;;;10275075;28;20076;-69
2022/07/03 16:41:26;;;;;;;5.07;4.32;;;;;;;;;;10277137;28;20076;-70
2022/07/03 16:46:25;;;;;;;5.10;4.60;;;;;;;;;;10274587;28;20041;-69
2022/07/03 16:51:25;;;;;;;6.47;4.10;;;;;;;;;;10276031;28;20045;-69
2022/07/03 16:56:25;;;;;;;6.40;5.80;;;;;;;;;;10282971;28;20529;-69
2022/07/03 17:01:25;;;;;;;5.70;3.75;;;;;;;;;;10282312;28;20069;-65
2022/07/03 17:06:26;;;;;;;10.37;4.60;;;;;;;;;;10280797;28;20056;-65
2022/07/03 17:11:24;;;;;;;7.53;6.25;;;;;;;;;;10280767;28;20055;-65
2022/07/03 17:16:23;;;;;;;8.98;7.88;;;;;;;;;;10285255;28;20082;-65
2022/07/03 17:21:23;;;;;;;9.45;6.65;;;;;;;;;;10285404;28;20107;-65
2022/07/03 17:26:24;;;;;;;8.45;7.18;;;;;;;;;;10281062;28;20045;-64
2022/07/03 17:31:25;;;;;;;14.20;8.15;;;;;;;;;;10289038;28;20052;-64
2022/07/03 17:36:27;;;;;;;10.60;7.75;;;;;;;;;;10280600;28;20048;-65
2022/07/03 17:41:26;;;;;;;9.18;3.85;;;;;;;;;;10279501;28;20049;-65
2022/07/03 17:46:25;;;;;;;7.57;3.00;;;;;;;;;;10280100;28;20084;-65
2022/07/03 17:51:25;;;;;;;15.25;4.38;;;;;;;;;;10287908;28;20597;-64
2022/07/03 17:56:26;;;;;;;8.70;2.42;;;;;;;;;;10280171;28;20421;-65
2022/07/03 18:01:24;;;;;;;4.70;2.30;;;;;;;;;;10284010;28;20087;-65
2022/07/03 18:06:26;;;;;;;7.93;2.30;;;;;;;;;;10278478;28;20049;-66
2022/07/03 18:11:29;;;;;;;10.07;2.90;;;;;;;;;;10279744;28;20069;-65
2022/07/03 18:16:34;;;;;;;2.75;2.10;;;;;;;;;;10280015;28;20080;-65
2022/07/03 18:21:33;;;;;;;9.35;2.85;;;;;;;;;;10287120;28;20458;-66
2022/07/03 18:26:39;;;;;;;4.82;3.00;;;;;;;;;;10278894;28;20122;-65
2022/07/03 18:31:39;;;;;;;2.58;1.95;;;;;;;;;;10278591;28;20057;-66
2022/07/03 18:36:38;;;;;;;9.23;2.92;;;;;;;;;;10277024;28;20091;-64
2022/07/03 18:41:38;;;;;;;7.30;2.25;;;;;;;;;;10286414;28;20085;-66
2022/07/03 18:46:36;;;;;;;10.02;3.55;;;;;;;;;;10281763;28;20074;-66
2022/07/03 18:51:36;;;;;;;4.93;2.20;;;;;;;;;;10279186;28;20084;-66
2022/07/03 18:56:42;;;;;;;10.70;2.88;;;;;;;;;;10277670;28;20049;-65
2022/07/03 19:01:40;;;;;;;;;;;;;;;;;;10277799;28;20466;-65
2022/07/03 19:06:39;;;;;;;37.63;5.00;;;;;;;;;;10277008;28;19962;-64
2022/07/03 19:11:41;;;;;;;5.13;2.20;;;;;;;;;;10281840;28;20538;-66
2022/07/03 19:16:40;;;;;;;3.70;2.25;;;;;;;;;;10282009;28;20067;-65
2022/07/03 19:21:39;;;;;;;9.63;2.05;;;;;;;;;;10278921;28;20076;-65
2022/07/03 19:26:37;;;;;;;3.25;2.00;;;;;;;;;;10281499;28;20069;-65
2022/07/03 19:31:37;;;;;;;2.35;2.08;;;;;;;;;;10290912;28;20533;-65
2022/07/03 19:36:36;;;;;;;6.82;2.55;;;;;;;;;;10282237;28;20078;-64
2022/07/03 19:41:34;;;;;;;2.55;2.00;;;;;;;;;;10283076;28;20097;-64
2022/07/03 19:46:33;;;;;;;4.57;1.90;;;;;;;;;;10282458;28;20087;-64
2022/07/03 19:51:34;;;;;;;6.65;2.97;;;;;;;;;;10284279;28;20077;-65
2022/07/03 19:56:32;;;;;;;2.22;2.03;;;;;;;;;;10283848;28;20064;-64
2022/07/03 20:01:31;;;;;;;4.72;1.70;;;;;;;;;;10280440;28;20079;-65
2022/07/03 20:06:29;;;;;;;5.65;2.00;;;;;;;;;;10274763;28;20083;-64
2022/07/03 20:11:30;;;;;;;2.78;2.15;;;;;;;;;;10274225;28;20089;-65
2022/07/03 20:16:28;;;;;;;4.38;2.08;;;;;;;;;;10272917;28;20549;-65
2022/07/03 20:21:26;;;;;;;4.95;1.90;;;;;;;;;;10274993;28;20084;-64
2022/07/03 20:26:25;;;;;;;7.38;2.05;;;;;;;;;;10280831;28;20068;-65
2022/07/03 20:31:25;;;;;;;4.35;1.73;;;;;;;;;;10289250;28;20560;-64
2022/07/03 20:36:24;;;;;;;2.25;1.90;;;;;;;;;;10288034;28;20076;-64
2022/07/03 20:41:22;;;;;;;2.47;1.63;;;;;;;;;;10286985;28;20087;-65
2022/07/03 20:46:22;;;;;;;6.93;2.10;;;;;;;;;;10291567;28;20104;-63
2022/07/03 20:51:22;;;;;;;6.68;2.38;;;;;;;;;;10284366;28;20076;-64
2022/07/03 20:56:21;;;;;;;4.55;1.90;;;;;;;;;;10278400;28;20072;-63
2022/07/03 21:01:24;;;;;;;2.63;2.20;;;;;;;;;;10286250;28;20072;-64
2022/07/03 21:06:25;;;;;;;4.20;2.47;;;;;;;;;;10289720;28;20079;-64
2022/07/03 21:11:34;;;;;;;2.88;1.90;;;;;;;;;;10285606;28;20107;-64
2022/07/03 21:16:33;;;;;;;8.07;1.90;;;;;;;;;;10277683;28;20087;-64
2022/07/03 21:21:33;;;;;;;3.03;2.20;;;;;;;;;;10287504;28;20076;-65
2022/07/03 21:26:31;;;;;;;2.78;2.22;;;;;;;;;;10280210;28;20068;-64
2022/07/03 21:31:30;;;;;;;6.20;1.98;;;;;;;;;;10280750;28;20076;-65
2022/07/03 21:36:28;;;;;;;4.82;1.75;;;;;;;;;;10274089;28;20083;-65
2022/07/03 21:41:28;;;;;;;2.72;1.73;;;;;;;;;;10283777;28;20073;-65
2022/07/03 21:46:26;;;;;;;2.72;2.00;;;;;;;;;;10280552;28;20878;-65
2022/07/03 21:51:24;;;;;;;4.97;2.58;;;;;;;;;;10280661;28;20435;-64
2022/07/03 21:56:23;;;;;;;4.93;2.28;;;;;;;;;;10288471;28;20072;-65
2022/07/03 22:01:23;;;;;;;1.98;1.77;;;;;;;;;;10286780;28;20508;-64
2022/07/03 22:06:21;;;;;;;2.25;1.88;;;;;;;;;;10279484;28;20076;-64
2022/07/03 22:11:19;;;;;;;2.70;1.90;;;;;;;;;;10282989;28;20584;-64
2022/07/03 22:16:17;;;;;;;5.10;2.05;;;;;;;;;;10289756;28;20110;-64
2022/07/03 22:21:17;;;;;;;2.20;1.90;;;;;;;;;;10280002;28;20132;-64
2022/07/03 22:26:16;;;;;;;6.25;2.15;;;;;;;;;;10278620;28;20044;-63
2022/07/03 22:36:31;;;;;;;4.25;1.90;;;;;;;;;;10279075;28;20045;-64
2022/07/03 22:41:29;;;;;;;3.95;2.47;;;;;;;;;;10277529;28;20076;-65
2022/07/03 22:46:27;;;;;;;4.53;1.95;;;;;;;;;;10282353;28;20049;-63
2022/07/03 22:51:26;;;;;;;4.00;2.38;;;;;;;;;;10277225;28;20075;-65
2022/07/03 22:56:26;;;;;;;2.92;1.67;;;;;;;;;;10275587;28;20076;-65
2022/07/03 23:01:24;;;;;;;2.50;1.65;;;;;;;;;;10275641;28;20073;-65
2022/07/03 23:06:23;;;;;;;2.30;1.63;;;;;;;;;;10277056;28;20090;-65
2022/07/03 23:11:21;;;;;;;2.33;2.03;;;;;;;;;;10278550;28;20092;-64
2022/07/03 23:16:21;;;;;;;4.00;2.00;;;;;;;;;;10276637;28;20060;-64
2022/07/03 23:21:19;;;;;;;6.20;2.13;;;;;;;;;;10271129;28;20068;-64
2022/07/03 23:26:17;;;;;;;5.13;2.38;;;;;;;;;;10276758;28;20474;-65
2022/07/03 23:31:15;;;;;;;3.28;2.03;;;;;;;;;;10274864;28;20065;-64
2022/07/03 23:36:15;;;;;;;3.47;2.35;;;;;;;;;;10287758;28;20056;-65
2022/07/03 23:41:14;;;;;;;2.75;2.22;;;;;;;;;;10274540;28;20080;-64
2022/07/03 23:46:12;;;;;;;4.05;2.25;;;;;;;;;;10274508;28;20076;-63
2022/07/03 23:51:10;;;;;;;3.80;2.40;;;;;;;;;;10279242;28;20045;-63
2022/07/03 23:56:10;;;;;;;5.32;1.95;;;;;;;;;;10278958;28;20056;-63
